createdAt,value
2024-04-26T00:00:06.442Z,98900.91
2024-04-26T00:03:24.369Z,98902.09
2024-04-26T00:05:54.855Z,98906.04
2024-04-26T00:08:26.397Z,98904.86
2024-04-26T00:10:57.922Z,98903.47
2024-04-26T00:13:29.671Z,98905.05
2024-04-26T00:16:03.084Z,98901.17
2024-04-26T00:18:34.527Z,98901.05
2024-04-26T00:21:05.052Z,98900.02
2024-04-26T00:23:37.276Z,98897.59
2024-04-26T00:26:08.712Z,98896.59
2024-04-26T00:28:40.120Z,98902.31
2024-04-26T00:31:10.454Z,98904.00
2024-04-26T00:33:42.498Z,98906.69
2024-04-26T00:36:12.828Z,98909.86
2024-04-26T00:38:45.740Z,98915.59
2024-04-26T00:41:16.140Z,98914.77
2024-04-26T00:43:51.380Z,98916.20
2024-04-26T00:46:24.992Z,98917.10
2024-04-26T00:48:55.532Z,98921.23
2024-04-26T00:51:27.904Z,98920.84
2024-04-26T00:53:58.162Z,98917.85
2024-04-26T00:56:29.988Z,98920.00
2024-04-26T00:59:00.390Z,98919.95
2024-04-26T01:01:31.867Z,98917.14
2024-04-26T01:04:02.265Z,98920.09
2024-04-26T01:06:33.719Z,98920.73
2024-04-26T01:09:04.188Z,98920.80
2024-04-26T01:11:35.761Z,98919.62
2024-04-26T01:14:06.565Z,98923.02
2024-04-26T01:16:38.295Z,98921.94
2024-04-26T01:19:10.403Z,98925.98
2024-04-26T01:21:42.216Z,98926.95
2024-04-26T01:24:12.337Z,98930.73
2024-04-26T01:26:44.219Z,98928.66
2024-04-26T01:29:15.493Z,98930.44
2024-04-26T01:31:47.128Z,98932.43
2024-04-26T01:34:17.417Z,98934.02
2024-04-26T01:36:48.865Z,98931.31
2024-04-26T01:39:19.093Z,98932.48
2024-04-26T01:41:51.202Z,98931.23
2024-04-26T01:44:21.644Z,98935.38
2024-04-26T01:46:53.202Z,98939.31
2024-04-26T01:49:24.111Z,98941.45
2024-04-26T01:51:55.732Z,98941.02
2024-04-26T01:54:25.945Z,98940.66
2024-04-26T01:56:57.581Z,98935.95
2024-04-26T01:59:28.111Z,98935.85
2024-04-26T02:01:59.683Z,98932.06
2024-04-26T02:04:30.064Z,98932.73
2024-04-26T02:07:01.569Z,98931.52
2024-04-26T02:09:31.989Z,98929.75
2024-04-26T02:12:02.568Z,98933.58
2024-04-26T02:14:32.980Z,98933.62
2024-04-26T02:17:04.626Z,98937.41
2024-04-26T02:19:35.142Z,98940.52
2024-04-26T02:22:06.891Z,98942.85
2024-04-26T02:24:37.211Z,98944.28
2024-04-26T02:27:08.815Z,98946.59
2024-04-26T02:29:39.261Z,98950.97
2024-04-26T02:32:10.903Z,98953.30
2024-04-26T02:34:42.196Z,98953.13
2024-04-26T02:37:13.855Z,98954.03
2024-04-26T02:39:44.291Z,98949.52
2024-04-26T02:42:15.942Z,98952.59
2024-04-26T02:44:46.510Z,98947.14
2024-04-26T02:47:18.151Z,98946.73
2024-04-26T02:49:49.676Z,98947.46
2024-04-26T02:52:21.122Z,98949.41
2024-04-26T02:54:51.140Z,98953.83
2024-04-26T02:57:22.903Z,98953.91
2024-04-26T02:59:52.931Z,98957.24
2024-04-26T03:02:26.448Z,98954.46
2024-04-26T03:04:56.748Z,98958.52
2024-04-26T03:07:29.550Z,98962.08
2024-04-26T03:10:00.008Z,98962.46
2024-04-26T03:12:31.889Z,98963.40
2024-04-26T03:15:05.827Z,98965.86
2024-04-26T03:17:38.390Z,98966.07
2024-04-26T03:20:08.916Z,98970.27
2024-04-26T03:22:42.082Z,98972.56
2024-04-26T03:25:12.131Z,98973.77
2024-04-26T03:27:43.782Z,98976.05
2024-04-26T03:30:14.515Z,98975.30
2024-04-26T03:32:46.286Z,98980.07
2024-04-26T03:35:16.626Z,98975.27
2024-04-26T03:37:49.392Z,98979.37
2024-04-26T03:40:19.727Z,98986.29
2024-04-26T03:42:51.179Z,98985.93
2024-04-26T03:45:21.689Z,98986.02
2024-04-26T03:47:53.491Z,98990.64
2024-04-26T03:50:25.622Z,98991.89
2024-04-26T03:52:57.172Z,98992.60
2024-04-26T03:55:27.595Z,98995.59
2024-04-26T03:57:59.254Z,98995.46
2024-04-26T04:00:33.768Z,98996.96
2024-04-26T04:03:05.690Z,98999.83
2024-04-26T04:05:36.432Z,98998.25
2024-04-26T04:08:08.924Z,98998.61
2024-04-26T04:10:39.592Z,98998.67
2024-04-26T04:13:11.216Z,99004.11
2024-04-26T04:15:41.656Z,99003.79
2024-04-26T04:18:15.243Z,99002.63
2024-04-26T04:20:45.925Z,99004.13
2024-04-26T04:23:17.330Z,99005.27
2024-04-26T04:25:48.067Z,99007.62
2024-04-26T04:28:19.424Z,99007.50
2024-04-26T04:30:49.754Z,99008.39
2024-04-26T04:33:22.136Z,99006.67
2024-04-26T04:35:53.238Z,99007.46
2024-04-26T04:38:24.851Z,99005.13
2024-04-26T04:40:55.138Z,99006.13
2024-04-26T04:43:26.584Z,99011.69
2024-04-26T04:45:56.823Z,99010.77
2024-04-26T04:48:28.590Z,99012.49
2024-04-26T04:50:59.020Z,99015.96
2024-04-26T04:53:30.723Z,99012.02
2024-04-26T04:56:01.487Z,99012.96
2024-04-26T04:58:32.835Z,99017.05
2024-04-26T05:01:03.310Z,99018.52
2024-04-26T05:03:35.615Z,99016.00
2024-04-26T05:06:06.329Z,99018.50
2024-04-26T05:08:37.860Z,99022.51
2024-04-26T05:11:08.253Z,99019.77
2024-04-26T05:13:39.900Z,99019.05
2024-04-26T05:16:13.097Z,99023.04
2024-04-26T05:18:48.176Z,99019.66
2024-04-26T05:21:23.362Z,99022.88
2024-04-26T05:23:54.012Z,99021.90
2024-04-26T05:26:25.700Z,99026.33
2024-04-26T05:28:56.691Z,99025.80
2024-04-26T05:31:28.249Z,99028.10
2024-04-26T05:33:58.640Z,99030.98
2024-04-26T05:36:30.423Z,99033.54
2024-04-26T05:39:00.914Z,99033.48
2024-04-26T05:41:33.371Z,99037.42
2024-04-26T05:44:03.650Z,99036.42
2024-04-26T05:46:35.098Z,99038.09
2024-04-26T05:49:05.735Z,99038.02
2024-04-26T05:51:37.193Z,99038.61
2024-04-26T05:54:07.920Z,99039.48
2024-04-26T05:56:39.614Z,99042.20
2024-04-26T05:59:10.310Z,99038.56
2024-04-26T06:01:41.969Z,99042.56
2024-04-26T06:04:12.575Z,99041.86
2024-04-26T06:06:47.332Z,99042.41
2024-04-26T06:09:22.156Z,99046.64
2024-04-26T06:11:53.281Z,99050.23
2024-04-26T06:14:24.949Z,99051.17
2024-04-26T06:16:55.278Z,99051.73
2024-04-26T06:19:26.931Z,99051.75
2024-04-26T06:21:57.575Z,99056.06
2024-04-26T06:24:29.116Z,99060.27
2024-04-26T06:26:59.381Z,99058.28
2024-04-26T06:29:31.359Z,99061.09
2024-04-26T06:32:04.962Z,99061.02
2024-04-26T06:34:37.178Z,99059.75
2024-04-26T06:37:08.649Z,99063.10
2024-04-26T06:39:40.192Z,99065.20
2024-04-26T06:42:10.516Z,99063.63
2024-04-26T06:44:42.402Z,99061.70
2024-04-26T06:47:12.819Z,99064.05
2024-04-26T06:49:44.585Z,99060.33
2024-04-26T06:52:15.071Z,99065.73
2024-04-26T06:54:46.543Z,99062.30
2024-04-26T06:57:17.259Z,99058.29
2024-04-26T06:59:48.839Z,99060.03
2024-04-26T07:02:19.922Z,99059.48
2024-04-26T07:04:51.710Z,99055.80
2024-04-26T07:07:23.478Z,99061.04
2024-04-26T07:09:54.923Z,99063.34
2024-04-26T07:12:25.296Z,99058.52
2024-04-26T07:14:56.808Z,99060.45
2024-04-26T07:17:27.368Z,99060.27
2024-04-26T07:19:58.917Z,99060.81
2024-04-26T07:22:29.421Z,99057.58
2024-04-26T07:25:01.182Z,99063.16
2024-04-26T07:27:31.684Z,99066.52
2024-04-26T07:30:03.954Z,99066.27
2024-04-26T07:32:34.375Z,99067.35
2024-04-26T07:35:06.265Z,99070.92
2024-04-26T07:37:36.480Z,99074.67
2024-04-26T07:40:08.444Z,99072.83
2024-04-26T07:42:38.765Z,99064.39
2024-04-26T07:45:10.490Z,99068.36
2024-04-26T07:47:40.983Z,99069.04
2024-04-26T07:50:12.909Z,99071.51
2024-04-26T07:52:43.233Z,99073.22
2024-04-26T07:55:14.888Z,99067.55
2024-04-26T07:57:45.110Z,99067.64
2024-04-26T08:00:17.108Z,99066.69
2024-04-26T08:02:47.659Z,99064.46
2024-04-26T08:05:19.622Z,99067.08
2024-04-26T08:07:51.176Z,99065.69
2024-04-26T08:10:23.345Z,99066.55
2024-04-26T08:12:53.869Z,99064.84
2024-04-26T08:15:25.686Z,99069.87
2024-04-26T08:17:56.333Z,99071.77
2024-04-26T08:20:28.196Z,99071.64
2024-04-26T08:22:58.587Z,99070.52
2024-04-26T08:25:29.896Z,99070.06
2024-04-26T08:28:00.379Z,99069.16
2024-04-26T08:30:33.094Z,99066.17
2024-04-26T08:33:06.769Z,99069.48
2024-04-26T08:35:41.172Z,99066.85
2024-04-26T08:38:11.581Z,99066.48
2024-04-26T08:40:43.869Z,99062.94
2024-04-26T08:43:13.983Z,99061.15
2024-04-26T08:45:45.635Z,99061.69
2024-04-26T08:48:15.896Z,99058.94
2024-04-26T08:50:48.970Z,99063.95
2024-04-26T08:53:19.682Z,99059.14
2024-04-26T08:55:51.236Z,99061.46
2024-04-26T08:58:21.554Z,99061.88
2024-04-26T09:00:53.552Z,99061.02
2024-04-26T09:03:23.950Z,99053.77
2024-04-26T09:05:55.739Z,99063.40
2024-04-26T09:08:25.873Z,99060.08
2024-04-26T09:10:57.580Z,99062.38
2024-04-26T09:13:29.219Z,99052.83
2024-04-26T09:16:00.894Z,99055.14
2024-04-26T09:18:31.258Z,99057.24
2024-04-26T09:21:06.390Z,99053.79
2024-04-26T09:23:39.205Z,99053.34
2024-04-26T09:26:09.767Z,99056.88
2024-04-26T09:28:41.327Z,99057.28
2024-04-26T09:31:11.969Z,99054.58
2024-04-26T09:33:43.921Z,99060.49
2024-04-26T09:36:14.578Z,99059.95
2024-04-26T09:38:48.070Z,99053.30
2024-04-26T09:41:22.570Z,99049.61
2024-04-26T09:43:54.038Z,99050.48
2024-04-26T09:46:30.691Z,99049.14
2024-04-26T09:49:02.289Z,99045.17
2024-04-26T09:51:38.149Z,99046.30
2024-04-26T09:54:17.442Z,99052.25
2024-04-26T09:56:47.998Z,99051.77
2024-04-26T09:59:20.104Z,99051.33
2024-04-26T10:01:50.378Z,99047.85
2024-04-26T10:04:22.254Z,99047.19
2024-04-26T10:06:52.747Z,99046.72
2024-04-26T10:09:27.386Z,99042.95
2024-04-26T10:11:59.956Z,99043.91
2024-04-26T10:14:36.444Z,99047.25
2024-04-26T10:17:11.384Z,99043.55
2024-04-26T10:19:45.410Z,99044.98
2024-04-26T10:22:16.088Z,99048.31
2024-04-26T10:24:54.019Z,99041.80
2024-04-26T10:27:29.056Z,99041.78
2024-04-26T10:30:02.019Z,99038.48
2024-04-26T10:32:32.688Z,99039.80
2024-04-26T10:35:04.910Z,99033.55
2024-04-26T10:37:35.267Z,99034.05
2024-04-26T10:40:07.245Z,99032.36
2024-04-26T10:42:40.805Z,99030.88
2024-04-26T10:45:13.351Z,99023.28
2024-04-26T10:47:44.311Z,99031.02
2024-04-26T10:50:19.256Z,99021.69
2024-04-26T10:52:51.822Z,99025.41
2024-04-26T10:55:22.151Z,99029.14
2024-04-26T10:57:58.156Z,99028.67
2024-04-26T11:00:42.134Z,99025.28
2024-04-26T11:03:13.917Z,99022.21
2024-04-26T11:05:45.590Z,99022.83
2024-04-26T11:08:24.855Z,99021.88
2024-04-26T11:10:56.506Z,99016.63
2024-04-26T11:13:27.299Z,99011.52
2024-04-26T11:15:59.566Z,99012.98
2024-04-26T11:18:29.728Z,99009.05
2024-04-26T11:21:01.566Z,99004.27
2024-04-26T11:23:32.025Z,99006.09
2024-04-26T11:26:03.720Z,98997.54
2024-04-26T11:28:34.055Z,98996.80
2024-04-26T11:31:05.912Z,99000.14
2024-04-26T11:33:43.757Z,98998.10
2024-04-26T11:36:19.994Z,98996.80
2024-04-26T11:38:50.771Z,98998.80
2024-04-26T11:41:22.815Z,98999.87
2024-04-26T11:43:53.193Z,98999.01
2024-04-26T11:46:24.858Z,99001.05
2024-04-26T11:48:55.417Z,98995.05
2024-04-26T11:51:27.529Z,98998.48
2024-04-26T11:53:59.466Z,99002.55
2024-04-26T11:56:31.331Z,99000.39
2024-04-26T11:59:02.671Z,99001.39
2024-04-26T12:01:34.365Z,98999.80
2024-04-26T12:04:04.833Z,98996.93
2024-04-26T12:06:36.706Z,99002.21
2024-04-26T12:09:06.829Z,98999.84
2024-04-26T12:11:38.592Z,99000.17
2024-04-26T12:14:08.904Z,98997.70
2024-04-26T12:16:45.177Z,98994.58
2024-04-26T12:19:17.586Z,98990.27
2024-04-26T12:21:50.698Z,98984.10
2024-04-26T12:24:22.393Z,98986.98
2024-04-26T12:26:52.817Z,98986.61
2024-04-26T12:29:24.866Z,98984.15
2024-04-26T12:31:57.475Z,98983.73
2024-04-26T12:34:29.794Z,98988.79
2024-04-26T12:37:00.317Z,98991.38
2024-04-26T12:39:33.409Z,98988.81
2024-04-26T12:42:05.274Z,98992.96
2024-04-26T12:44:37.547Z,98986.00
2024-04-26T12:47:07.879Z,98979.67
2024-04-26T12:49:39.518Z,98975.07
2024-04-26T12:52:09.933Z,98972.86
2024-04-26T12:54:41.998Z,98972.42
2024-04-26T12:57:12.849Z,98968.91
2024-04-26T12:59:48.122Z,98968.36
2024-04-26T13:02:20.883Z,98971.52
2024-04-26T13:04:51.610Z,98963.83
2024-04-26T13:07:23.455Z,98967.91
2024-04-26T13:09:53.596Z,98970.61
2024-04-26T13:12:25.164Z,98972.38
2024-04-26T13:14:55.631Z,98971.60
2024-04-26T13:17:27.386Z,98971.36
2024-04-26T13:19:58.638Z,98972.98
2024-04-26T13:22:30.432Z,98972.91
2024-04-26T13:25:00.635Z,98972.81
2024-04-26T13:27:34.277Z,98964.98
2024-04-26T13:30:04.733Z,98963.43
2024-04-26T13:32:37.453Z,98968.58
2024-04-26T13:35:07.867Z,98970.96
2024-04-26T13:37:39.331Z,98974.88
2024-04-26T13:40:09.755Z,98972.52
2024-04-26T13:42:41.306Z,98967.90
2024-04-26T13:45:13.253Z,98960.48
2024-04-26T13:47:45.115Z,98960.93
2024-04-26T13:50:16.320Z,98957.51
2024-04-26T13:52:48.127Z,98956.29
2024-04-26T13:55:18.776Z,98952.74
2024-04-26T13:57:50.429Z,98954.18
2024-04-26T14:00:20.715Z,98956.31
2024-04-26T14:02:53.486Z,98952.88
2024-04-26T14:05:24.049Z,98953.73
2024-04-26T14:07:55.814Z,98954.47
2024-04-26T14:10:26.312Z,98951.11
2024-04-26T14:12:57.889Z,98955.30
2024-04-26T14:15:28.541Z,98954.27
2024-04-26T14:18:00.429Z,98954.05
2024-04-26T14:20:30.754Z,98958.73
2024-04-26T14:23:02.781Z,98956.30
2024-04-26T14:25:32.892Z,98953.45
2024-04-26T14:28:04.814Z,98951.14
2024-04-26T14:30:37.192Z,98951.26
2024-04-26T14:33:08.992Z,98950.42
2024-04-26T14:35:40.029Z,98950.57
2024-04-26T14:38:12.439Z,98948.83
2024-04-26T14:40:42.443Z,98951.28
2024-04-26T14:43:15.930Z,98947.71
2024-04-26T14:45:46.761Z,98954.78
2024-04-26T14:48:18.361Z,98955.77
2024-04-26T14:50:48.732Z,98952.70
2024-04-26T14:53:20.386Z,98956.81
2024-04-26T14:55:50.761Z,98953.13
2024-04-26T14:58:22.406Z,98958.42
2024-04-26T15:00:52.714Z,98957.01
2024-04-26T15:03:24.385Z,98952.90
2024-04-26T15:05:54.874Z,98953.90
2024-04-26T15:08:26.419Z,98957.68
2024-04-26T15:10:56.819Z,98959.44
2024-04-26T15:13:28.520Z,98962.31
2024-04-26T15:16:00.616Z,98956.78
2024-04-26T15:18:33.605Z,98957.67
2024-04-26T15:21:04.414Z,98961.60
2024-04-26T15:23:36.967Z,98959.77
2024-04-26T15:26:07.222Z,98963.98
2024-04-26T15:28:38.746Z,98963.59
2024-04-26T15:31:09.282Z,98964.80
2024-04-26T15:33:43.244Z,98966.13
2024-04-26T15:36:14.741Z,98966.17
2024-04-26T15:38:46.186Z,98962.86
2024-04-26T15:41:16.842Z,98963.58
2024-04-26T15:43:48.386Z,98960.52
2024-04-26T15:46:18.797Z,98962.29
2024-04-26T15:48:50.163Z,98960.61
2024-04-26T15:51:20.476Z,98965.60
2024-04-26T15:53:51.821Z,98959.16
2024-04-26T15:56:22.149Z,98959.33
2024-04-26T15:58:53.778Z,98961.52
2024-04-26T16:01:24.248Z,98965.86
2024-04-26T16:03:55.717Z,98968.83
2024-04-26T16:06:26.249Z,98971.57
2024-04-26T16:08:57.551Z,98972.13
2024-04-26T16:11:28.415Z,98968.52
2024-04-26T16:13:59.873Z,98967.52
2024-04-26T16:16:30.289Z,98968.39
2024-04-26T16:19:03.562Z,98969.71
2024-04-26T16:21:33.785Z,98964.61
2024-04-26T16:24:05.552Z,98971.95
2024-04-26T16:26:35.778Z,98974.14
2024-04-26T16:29:09.067Z,98970.52
2024-04-26T16:31:39.455Z,98969.04
2024-04-26T16:34:11.144Z,98966.70
2024-04-26T16:36:42.087Z,98969.02
2024-04-26T16:39:13.935Z,98967.52
2024-04-26T16:41:44.259Z,98967.01
2024-04-26T16:44:17.048Z,98963.99
2024-04-26T16:46:47.290Z,98967.84
2024-04-26T16:49:19.027Z,98971.70
2024-04-26T16:51:49.246Z,98970.29
2024-04-26T16:54:21.005Z,98973.77
2024-04-26T16:56:51.349Z,98971.34
2024-04-26T16:59:24.117Z,98976.98
2024-04-26T17:01:54.483Z,98978.77
2024-04-26T17:04:26.194Z,98981.42
2024-04-26T17:06:56.413Z,98980.34
2024-04-26T17:09:28.172Z,98984.34
2024-04-26T17:11:59.307Z,98983.25
2024-04-26T17:14:31.497Z,98990.27
2024-04-26T17:17:01.959Z,98991.81
2024-04-26T17:19:33.791Z,98995.40
2024-04-26T17:22:04.431Z,98998.00
2024-04-26T17:24:39.036Z,99001.80
2024-04-26T17:27:11.720Z,98999.50
2024-04-26T17:29:42.591Z,99001.20
2024-04-26T17:32:14.425Z,99001.40
2024-04-26T17:34:45.046Z,99002.80
2024-04-26T17:37:16.595Z,99003.14
2024-04-26T17:39:56.848Z,99004.77
2024-04-26T17:42:28.288Z,99005.86
2024-04-26T17:44:58.833Z,99007.09
2024-04-26T17:47:30.502Z,99011.44
2024-04-26T17:50:01.073Z,99013.41
2024-04-26T17:52:33.116Z,99017.95
2024-04-26T17:55:03.521Z,99016.94
2024-04-26T17:57:35.147Z,99020.23
2024-04-26T18:00:06.104Z,99024.05
2024-04-26T18:02:44.849Z,99024.35
2024-04-26T18:05:15.914Z,99024.19
2024-04-26T18:07:51.463Z,99032.27
2024-04-26T18:10:23.412Z,99029.47
2024-04-26T18:12:53.684Z,99033.02
2024-04-26T18:15:25.255Z,99036.36
2024-04-26T18:17:56.345Z,99040.27
2024-04-26T18:20:39.017Z,99042.18
2024-04-26T18:23:13.356Z,99046.17
2024-04-26T18:25:47.325Z,99046.67
2024-04-26T18:28:19.287Z,99055.81
2024-04-26T18:30:49.509Z,99055.89
2024-04-26T18:33:21.223Z,99059.59
2024-04-26T18:36:01.223Z,99062.42
2024-04-26T18:38:38.402Z,99066.86
2024-04-26T18:41:10.584Z,99070.38
2024-04-26T18:43:42.721Z,99073.83
2024-04-26T18:46:13.776Z,99071.77
2024-04-26T18:48:45.635Z,99071.01
2024-04-26T18:51:16.564Z,99074.66
2024-04-26T18:53:48.144Z,99081.71
2024-04-26T18:56:18.561Z,99080.16
2024-04-26T18:58:50.232Z,99079.91
2024-04-26T19:01:21.457Z,99079.26
2024-04-26T19:03:55.261Z,99084.95
2024-04-26T19:06:26.206Z,99084.55
2024-04-26T19:08:58.061Z,99088.27
2024-04-26T19:11:29.054Z,99089.91
2024-04-26T19:14:00.994Z,99092.23
2024-04-26T19:16:31.434Z,99090.85
2024-04-26T19:19:03.259Z,99094.37
2024-04-26T19:21:33.780Z,99097.13
2024-04-26T19:24:07.012Z,99097.00
2024-04-26T19:26:37.191Z,99097.76
2024-04-26T19:29:08.797Z,99101.83
2024-04-26T19:31:39.226Z,99103.67
2024-04-26T19:34:10.835Z,99104.45
2024-04-26T19:36:41.358Z,99107.86
2024-04-26T19:39:12.899Z,99110.96
2024-04-26T19:41:44.650Z,99111.89
2024-04-26T19:44:16.114Z,99112.70
2024-04-26T19:46:46.293Z,99109.58
2024-04-26T19:49:22.981Z,99109.34
2024-04-26T19:52:00.630Z,99114.00
2024-04-26T19:54:49.459Z,99113.11
2024-04-26T19:57:21.318Z,99112.67
2024-04-26T19:59:51.355Z,99115.38
2024-04-26T20:02:22.789Z,99119.20
2024-04-26T20:04:53.087Z,99120.67
2024-04-26T20:07:25.097Z,99122.38
2024-04-26T20:09:55.301Z,99123.39
2024-04-26T20:12:28.811Z,99125.92
2024-04-26T20:14:59.022Z,99124.55
2024-04-26T20:17:30.885Z,99128.84
2024-04-26T20:20:01.136Z,99131.86
2024-04-26T20:22:34.754Z,99135.55
2024-04-26T20:25:05.350Z,99136.85
2024-04-26T20:27:36.892Z,99137.58
2024-04-26T20:30:07.522Z,99137.95
2024-04-26T20:32:39.279Z,99138.04
2024-04-26T20:35:09.698Z,99136.88
2024-04-26T20:37:41.191Z,99136.46
2024-04-26T20:40:11.891Z,99139.77
2024-04-26T20:42:43.641Z,99143.03
2024-04-26T20:45:14.581Z,99143.51
2024-04-26T20:47:46.178Z,99142.33
2024-04-26T20:50:16.663Z,99140.33
2024-04-26T20:52:48.893Z,99133.85
2024-04-26T20:55:19.214Z,99138.09
2024-04-26T20:57:51.641Z,99138.48
2024-04-26T21:00:21.955Z,99134.77
2024-04-26T21:02:53.501Z,99140.17
2024-04-26T21:05:23.938Z,99140.85
2024-04-26T21:07:55.625Z,99142.73
2024-04-26T21:10:26.138Z,99144.06
2024-04-26T21:12:57.672Z,99142.94
2024-04-26T21:15:27.917Z,99139.50
2024-04-26T21:17:59.408Z,99139.17
2024-04-26T21:20:31.454Z,99144.02
2024-04-26T21:23:03.565Z,99140.64
2024-04-26T21:25:33.804Z,99145.23
2024-04-26T21:28:05.959Z,99145.97
2024-04-26T21:30:36.399Z,99149.90
2024-04-26T21:33:25.062Z,99142.55
2024-04-26T21:35:55.822Z,99140.55
2024-04-26T21:38:27.451Z,99144.23
2024-04-26T21:40:58.144Z,99145.55
2024-04-26T21:43:29.744Z,99146.38
2024-04-26T21:46:00.085Z,99145.68
2024-04-26T21:48:31.668Z,99141.59
2024-04-26T21:51:02.022Z,99142.79
2024-04-26T21:53:33.790Z,99140.95
2024-04-26T21:56:04.230Z,99135.94
2024-04-26T21:58:35.775Z,99142.16
2024-04-26T22:01:07.012Z,99147.94
2024-04-26T22:03:38.704Z,99147.37
2024-04-26T22:06:09.810Z,99149.23
2024-04-26T22:08:41.580Z,99151.42
2024-04-26T22:11:12.086Z,99152.90
2024-04-26T22:13:43.692Z,99153.87
2024-04-26T22:16:16.807Z,99154.65
2024-04-26T22:18:49.934Z,99156.55
2024-04-26T22:21:20.341Z,99158.41
2024-04-26T22:23:52.124Z,99162.86
2024-04-26T22:26:22.337Z,99160.83
2024-04-26T22:28:54.343Z,99158.12
2024-04-26T22:31:28.891Z,99164.21
2024-04-26T22:34:00.634Z,99165.08
2024-04-26T22:36:32.243Z,99169.17
2024-04-26T22:39:03.910Z,99172.39
2024-04-26T22:41:34.213Z,99170.41
2024-04-26T22:44:06.477Z,99171.21
2024-04-26T22:46:36.716Z,99175.02
2024-04-26T22:49:13.786Z,99176.23
2024-04-26T22:51:53.793Z,99172.24
2024-04-26T22:54:24.166Z,99176.44
2024-04-26T22:56:55.918Z,99176.04
2024-04-26T22:59:26.352Z,99173.20
2024-04-26T23:01:58.111Z,99173.08
2024-04-26T23:04:34.289Z,99175.77
2024-04-26T23:07:06.529Z,99174.80
2024-04-26T23:09:36.555Z,99174.80
2024-04-26T23:12:08.424Z,99178.05
2024-04-26T23:14:38.436Z,99179.16
2024-04-26T23:17:10.049Z,99174.27
2024-04-26T23:19:40.135Z,99178.11
2024-04-26T23:22:11.962Z,99179.92
2024-04-26T23:24:42.092Z,99180.17
2024-04-26T23:27:13.638Z,99176.94
2024-04-26T23:29:45.395Z,99178.75
2024-04-26T23:32:17.567Z,99184.20
2024-04-26T23:34:47.641Z,99178.48
2024-04-26T23:37:19.148Z,99177.61
2024-04-26T23:39:49.357Z,99182.39
2024-04-26T23:42:20.966Z,99183.20
2024-04-26T23:44:50.985Z,99179.55
2024-04-26T23:47:22.683Z,99182.19
2024-04-26T23:49:52.846Z,99181.63
2024-04-26T23:52:24.562Z,99182.09
2024-04-26T23:54:54.573Z,99183.70
2024-04-26T23:57:26.545Z,99181.83
2024-04-26T23:59:56.865Z,99181.73
